In Rescue
 
Open Full Screen Window  High Contrast Mode
Wind Gusting 00 knots
04
September 19, 2019 4:48 PM EDT
Weather Information
Wind Direction
  170 °
Wind Speed
  04 kt (5 mph)
Wind Gust
  00 kt (0 mph)
Altimeter
30.09 in
Visibility
10 SM
Temperature
23° C
73° F
Dewpoint
15° C
59° F
Humidity
61%
1hr Rain Fall
00.00 in.
24hr Rain Fall
00.00 in.
Sky Condition
Clear
VFR

METAR KDRM 192048Z AUTO 17004KT 10SM CLR 23/15 A3009 RMK AO2 T02260154

FAA Disclaimer: The data displayed is for advisory purposes only and is not to be used for flight planning or operations.